sensor_id;sensor_type;location;lat;lon;timestamp;pressure;altitude;pressure_sealevel;temperature;humidity
31911;BME280;18457;52.432;16.914;2023-05-03T00:01:45;101381.71;;;10.84;55.40
31911;BME280;18457;52.432;16.914;2023-05-03T00:04:17;101380.45;;;10.85;55.47
31911;BME280;18457;52.432;16.914;2023-05-03T00:06:50;101385.91;;;10.81;55.48
31911;BME280;18457;52.432;16.914;2023-05-03T00:09:22;101387.00;;;10.79;55.56
31911;BME280;18457;52.432;16.914;2023-05-03T00:11:53;101389.77;;;10.75;56.06
31911;BME280;18457;52.432;16.914;2023-05-03T00:14:25;101390.27;;;10.79;56.13
31911;BME280;18457;52.432;16.914;2023-05-03T00:16:57;101393.66;;;10.82;55.96
31911;BME280;18457;52.432;16.914;2023-05-03T00:19:29;101393.84;;;10.83;56.49
31911;BME280;18457;52.432;16.914;2023-05-03T00:22:03;101399.64;;;10.82;56.36
31911;BME280;18457;52.432;16.914;2023-05-03T00:24:34;101398.76;;;10.80;56.76
31911;BME280;18457;52.432;16.914;2023-05-03T00:27:07;101401.72;;;10.72;57.33
31911;BME280;18457;52.432;16.914;2023-05-03T00:29:39;101396.43;;;10.78;57.33
31911;BME280;18457;52.432;16.914;2023-05-03T00:32:10;101387.45;;;10.72;57.86
31911;BME280;18457;52.432;16.914;2023-05-03T00:34:42;101390.54;;;10.68;58.60
31911;BME280;18457;52.432;16.914;2023-05-03T00:37:14;101389.29;;;10.66;58.67
31911;BME280;18457;52.432;16.914;2023-05-03T00:39:46;101388.48;;;10.57;58.97
31911;BME280;18457;52.432;16.914;2023-05-03T00:42:18;101388.67;;;10.56;58.88
31911;BME280;18457;52.432;16.914;2023-05-03T00:44:50;101390.38;;;10.46;58.82
31911;BME280;18457;52.432;16.914;2023-05-03T00:47:24;101386.95;;;10.42;59.23
31911;BME280;18457;52.432;16.914;2023-05-03T00:49:56;101389.91;;;10.34;59.41
31911;BME280;18457;52.432;16.914;2023-05-03T00:52:31;101384.90;;;10.27;59.58
31911;BME280;18457;52.432;16.914;2023-05-03T00:55:03;101383.51;;;10.19;60.12
31911;BME280;18457;52.432;16.914;2023-05-03T00:57:35;101384.69;;;10.00;61.22
31911;BME280;18457;52.432;16.914;2023-05-03T01:00:10;101381.86;;;9.89;62.23
31911;BME280;18457;52.432;16.914;2023-05-03T01:02:43;101378.98;;;9.90;63.01
31911;BME280;18457;52.432;16.914;2023-05-03T01:05:15;101377.91;;;9.85;63.34
31911;BME280;18457;52.432;16.914;2023-05-03T01:07:55;101378.84;;;9.81;63.89
31911;BME280;18457;52.432;16.914;2023-05-03T01:10:36;101382.13;;;9.71;64.89
31911;BME280;18457;52.432;16.914;2023-05-03T01:13:16;101383.76;;;9.72;65.61
31911;BME280;18457;52.432;16.914;2023-05-03T01:15:57;101385.05;;;9.63;66.61
31911;BME280;18457;52.432;16.914;2023-05-03T01:18:39;101390.67;;;9.57;67.39
31911;BME280;18457;52.432;16.914;2023-05-03T01:21:16;101394.45;;;9.62;67.72
31911;BME280;18457;52.432;16.914;2023-05-03T01:23:55;101398.95;;;9.60;68.10
31911;BME280;18457;52.432;16.914;2023-05-03T01:26:28;101408.21;;;9.48;68.61
31911;BME280;18457;52.432;16.914;2023-05-03T01:28:59;101411.64;;;9.46;68.95
31911;BME280;18457;52.432;16.914;2023-05-03T01:31:35;101409.98;;;9.56;68.58
31911;BME280;18457;52.432;16.914;2023-05-03T01:34:23;101410.48;;;9.67;67.81
31911;BME280;18457;52.432;16.914;2023-05-03T01:36:58;101410.19;;;9.51;68.64
31911;BME280;18457;52.432;16.914;2023-05-03T01:39:37;101416.86;;;9.47;69.02
31911;BME280;18457;52.432;16.914;2023-05-03T01:42:11;101417.09;;;9.36;69.55
31911;BME280;18457;52.432;16.914;2023-05-03T01:44:46;101416.05;;;9.19;70.50
31911;BME280;18457;52.432;16.914;2023-05-03T01:47:16;101419.67;;;9.08;70.99
31911;BME280;18457;52.432;16.914;2023-05-03T01:49:48;101416.62;;;9.01;71.32
31911;BME280;18457;52.432;16.914;2023-05-03T01:52:20;101418.06;;;9.02;71.61
31911;BME280;18457;52.432;16.914;2023-05-03T01:54:51;101416.62;;;9.08;71.34
31911;BME280;18457;52.432;16.914;2023-05-03T01:57:23;101417.70;;;9.05;71.54
31911;BME280;18457;52.432;16.914;2023-05-03T01:59:55;101419.67;;;9.07;71.34
31911;BME280;18457;52.432;16.914;2023-05-03T02:02:27;101419.14;;;9.04;72.09
31911;BME280;18457;52.432;16.914;2023-05-03T02:04:59;101417.33;;;9.08;71.79
31911;BME280;18457;52.432;16.914;2023-05-03T02:07:31;101418.96;;;9.03;72.22
31911;BME280;18457;52.432;16.914;2023-05-03T02:10:04;101415.72;;;9.07;71.96
31911;BME280;18457;52.432;16.914;2023-05-03T02:12:36;101413.53;;;9.17;71.91
31911;BME280;18457;52.432;16.914;2023-05-03T02:15:09;101415.87;;;9.16;71.86
31911;BME280;18457;52.432;16.914;2023-05-03T02:17:42;101414.47;;;9.00;72.51
31911;BME280;18457;52.432;16.914;2023-05-03T02:20:15;101414.83;;;8.97;72.64
31911;BME280;18457;52.432;16.914;2023-05-03T02:22:46;101412.48;;;8.99;72.78
31911;BME280;18457;52.432;16.914;2023-05-03T02:25:18;101415.73;;;8.91;73.09
31911;BME280;18457;52.432;16.914;2023-05-03T02:27:50;101408.17;;;8.83;73.04
31911;BME280;18457;52.432;16.914;2023-05-03T02:30:22;101413.94;;;8.79;73.28
31911;BME280;18457;52.432;16.914;2023-05-03T02:32:53;101417.36;;;8.89;73.25
31911;BME280;18457;52.432;16.914;2023-05-03T02:35:26;101421.14;;;8.92;72.72
31911;BME280;18457;52.432;16.914;2023-05-03T02:37:58;101418.61;;;8.94;73.22
31911;BME280;18457;52.432;16.914;2023-05-03T02:40:30;101413.74;;;9.00;73.26
31911;BME280;18457;52.432;16.914;2023-05-03T02:43:03;101417.88;;;9.02;73.13
31911;BME280;18457;52.432;16.914;2023-05-03T02:45:36;101419.34;;;8.87;73.12
31911;BME280;18457;52.432;16.914;2023-05-03T02:48:08;101420.98;;;8.74;73.68
31911;BME280;18457;52.432;16.914;2023-05-03T02:50:40;101416.46;;;8.81;74.00
31911;BME280;18457;52.432;16.914;2023-05-03T02:53:12;101421.52;;;8.82;73.79
31911;BME280;18457;52.432;16.914;2023-05-03T02:55:45;101425.48;;;8.71;74.14
31911;BME280;18457;52.432;16.914;2023-05-03T02:58:16;101421.34;;;8.69;74.27
31911;BME280;18457;52.432;16.914;2023-05-03T03:00:48;101424.20;;;8.83;73.88
31911;BME280;18457;52.432;16.914;2023-05-03T03:03:21;101431.77;;;8.82;73.75
31911;BME280;18457;52.432;16.914;2023-05-03T03:05:53;101425.83;;;8.89;73.16
31911;BME280;18457;52.432;16.914;2023-05-03T03:08:25;101431.23;;;8.76;73.80
31911;BME280;18457;52.432;16.914;2023-05-03T03:10:57;101433.04;;;8.80;73.88
31911;BME280;18457;52.432;16.914;2023-05-03T03:13:30;101431.95;;;8.77;73.60
31911;BME280;18457;52.432;16.914;2023-05-03T03:16:02;101431.42;;;8.79;73.60
31911;BME280;18457;52.432;16.914;2023-05-03T03:18:34;101439.53;;;8.78;73.55
31911;BME280;18457;52.432;16.914;2023-05-03T03:21:08;101435.02;;;8.70;74.12
31911;BME280;18457;52.432;16.914;2023-05-03T03:23:40;101436.64;;;8.87;73.80
31911;BME280;18457;52.432;16.914;2023-05-03T03:26:12;101440.60;;;8.86;73.93
31911;BME280;18457;52.432;16.914;2023-05-03T03:28:44;101441.14;;;8.86;73.87
31911;BME280;18457;52.432;16.914;2023-05-03T03:31:16;101437.36;;;9.00;73.59
31911;BME280;18457;52.432;16.914;2023-05-03T03:33:49;101437.52;;;9.04;73.37
31911;BME280;18457;52.432;16.914;2023-05-03T03:36:20;101441.15;;;8.96;73.84
31911;BME280;18457;52.432;16.914;2023-05-03T03:38:52;101439.70;;;8.94;74.03
31911;BME280;18457;52.432;16.914;2023-05-03T03:41:24;101448.70;;;8.83;74.51
31911;BME280;18457;52.432;16.914;2023-05-03T03:43:57;101451.42;;;8.88;74.71
31911;BME280;18457;52.432;16.914;2023-05-03T03:46:29;101450.34;;;8.97;74.18
31911;BME280;18457;52.432;16.914;2023-05-03T03:49:01;101453.39;;;9.07;73.58
31911;BME280;18457;52.432;16.914;2023-05-03T03:51:33;101452.85;;;9.03;73.05
31911;BME280;18457;52.432;16.914;2023-05-03T03:54:05;101451.76;;;9.12;72.71
31911;BME280;18457;52.432;16.914;2023-05-03T03:56:37;101455.36;;;9.17;72.18
31911;BME280;18457;52.432;16.914;2023-05-03T03:59:10;101458.96;;;9.22;72.36
31911;BME280;18457;52.432;16.914;2023-05-03T04:01:41;101464.20;;;9.14;72.36
31911;BME280;18457;52.432;16.914;2023-05-03T04:04:14;101470.88;;;9.06;72.51
31911;BME280;18457;52.432;16.914;2023-05-03T04:06:46;101476.45;;;9.03;72.88
31911;BME280;18457;52.432;16.914;2023-05-03T04:09:19;101476.10;;;9.04;73.41
31911;BME280;18457;52.432;16.914;2023-05-03T04:11:53;101473.39;;;9.14;73.31
31911;BME280;18457;52.432;16.914;2023-05-03T04:14:25;101476.98;;;9.13;73.49
31911;BME280;18457;52.432;16.914;2023-05-03T04:16:56;101485.28;;;9.10;73.84
31911;BME280;18457;52.432;16.914;2023-05-03T04:19:29;101494.49;;;9.07;74.53
31911;BME280;18457;52.432;16.914;2023-05-03T04:22:02;101503.14;;;9.10;74.52
31911;BME280;18457;52.432;16.914;2023-05-03T04:24:33;101506.55;;;9.13;74.36
31911;BME280;18457;52.432;16.914;2023-05-03T04:27:09;101504.94;;;9.04;74.18
31911;BME280;18457;52.432;16.914;2023-05-03T04:29:44;101505.48;;;9.06;74.18
31911;BME280;18457;52.432;16.914;2023-05-03T04:32:18;101508.36;;;9.08;74.37
31911;BME280;18457;52.432;16.914;2023-05-03T04:34:53;101513.23;;;9.13;74.69
31911;BME280;18457;52.432;16.914;2023-05-03T04:37:26;101512.69;;;9.19;74.41
31911;BME280;18457;52.432;16.914;2023-05-03T04:39:58;101514.13;;;9.25;73.78
31911;BME280;18457;52.432;16.914;2023-05-03T04:42:32;101515.73;;;9.26;73.73
31911;BME280;18457;52.432;16.914;2023-05-03T04:45:05;101516.09;;;9.35;73.30
31911;BME280;18457;52.432;16.914;2023-05-03T04:47:39;101518.80;;;9.34;72.95
31911;BME280;18457;52.432;16.914;2023-05-03T04:50:10;101520.96;;;9.33;72.97
31911;BME280;18457;52.432;16.914;2023-05-03T04:52:44;101523.14;;;9.32;72.94
31911;BME280;18457;52.432;16.914;2023-05-03T04:55:16;101524.02;;;9.39;72.63
31911;BME280;18457;52.432;16.914;2023-05-03T04:57:49;101528.17;;;9.41;72.08
31911;BME280;18457;52.432;16.914;2023-05-03T05:00:21;101531.05;;;9.45;72.13
31911;BME280;18457;52.432;16.914;2023-05-03T05:02:59;101532.66;;;9.54;72.41
31911;BME280;18457;52.432;16.914;2023-05-03T05:05:33;101535.03;;;9.42;72.25
31911;BME280;18457;52.432;16.914;2023-05-03T05:08:05;101532.33;;;9.44;72.45
31911;BME280;18457;52.432;16.914;2023-05-03T05:10:42;101534.13;;;9.45;72.38
31911;BME280;18457;52.432;16.914;2023-05-03T05:13:17;101532.66;;;9.58;71.84
31911;BME280;18457;52.432;16.914;2023-05-03T05:15:49;101533.36;;;9.66;70.97
31911;BME280;18457;52.432;16.914;2023-05-03T05:18:21;101537.11;;;9.77;70.73
31911;BME280;18457;52.432;16.914;2023-05-03T05:20:53;101542.36;;;9.76;69.93
31911;BME280;18457;52.432;16.914;2023-05-03T05:23:25;101546.14;;;9.81;69.12
31911;BME280;18457;52.432;16.914;2023-05-03T05:25:57;101548.09;;;9.90;68.84
31911;BME280;18457;52.432;16.914;2023-05-03T05:28:31;101555.48;;;9.95;69.49
31911;BME280;18457;52.432;16.914;2023-05-03T05:31:03;101559.80;;;9.99;69.59
31911;BME280;18457;52.432;16.914;2023-05-03T05:33:35;101563.63;;;9.88;69.37
31911;BME280;18457;52.432;16.914;2023-05-03T05:36:08;101566.14;;;9.84;69.60
31911;BME280;18457;52.432;16.914;2023-05-03T05:38:40;101567.29;;;9.68;70.29
31911;BME280;18457;52.432;16.914;2023-05-03T05:41:11;101564.74;;;9.71;70.53
31911;BME280;18457;52.432;16.914;2023-05-03T05:43:43;101564.20;;;9.73;70.37
31911;BME280;18457;52.432;16.914;2023-05-03T05:46:15;101565.27;;;9.77;70.43
31911;BME280;18457;52.432;16.914;2023-05-03T05:48:50;101567.05;;;9.89;70.53
31911;BME280;18457;52.432;16.914;2023-05-03T05:51:22;101570.84;;;9.93;70.85
31911;BME280;18457;52.432;16.914;2023-05-03T05:53:54;101573.89;;;9.94;70.01
31911;BME280;18457;52.432;16.914;2023-05-03T05:56:26;101575.00;;;9.87;68.76
31911;BME280;18457;52.432;16.914;2023-05-03T05:58:58;101576.08;;;9.87;68.52
31911;BME280;18457;52.432;16.914;2023-05-03T06:01:30;101573.55;;;9.89;68.68
31911;BME280;18457;52.432;16.914;2023-05-03T06:04:03;101580.93;;;9.96;68.48
31911;BME280;18457;52.432;16.914;2023-05-03T06:06:35;101582.03;;;9.96;68.14
31911;BME280;18457;52.432;16.914;2023-05-03T06:09:07;101584.55;;;9.96;67.60
31911;BME280;18457;52.432;16.914;2023-05-03T06:11:54;101591.40;;;9.95;67.72
31911;BME280;18457;52.432;16.914;2023-05-03T06:14:28;101587.98;;;9.96;67.69
31911;BME280;18457;52.432;16.914;2023-05-03T06:17:00;101595.92;;;9.86;67.32
31911;BME280;18457;52.432;16.914;2023-05-03T06:19:33;101597.56;;;9.82;67.96
31911;BME280;18457;52.432;16.914;2023-05-03T06:22:05;101601.53;;;9.89;67.80
31911;BME280;18457;52.432;16.914;2023-05-03T06:24:37;101600.07;;;9.93;68.23
31911;BME280;18457;52.432;16.914;2023-05-03T06:27:09;101598.44;;;9.98;68.37
31911;BME280;18457;52.432;16.914;2023-05-03T06:29:41;101602.03;;;10.04;68.23
31911;BME280;18457;52.432;16.914;2023-05-03T06:32:15;101602.77;;;10.02;68.68
31911;BME280;18457;52.432;16.914;2023-05-03T06:34:47;101603.11;;;10.04;68.69
31911;BME280;18457;52.432;16.914;2023-05-03T06:37:19;101604.93;;;10.12;68.67
31911;BME280;18457;52.432;16.914;2023-05-03T06:39:50;101605.83;;;10.13;67.48
31911;BME280;18457;52.432;16.914;2023-05-03T06:42:22;101608.36;;;10.08;66.78
31911;BME280;18457;52.432;16.914;2023-05-03T06:45:08;101607.45;;;10.16;67.42
31911;BME280;18457;52.432;16.914;2023-05-03T06:47:40;101604.50;;;10.30;67.29
31911;BME280;18457;52.432;16.914;2023-05-03T06:50:13;101605.42;;;10.29;66.49
31911;BME280;18457;52.432;16.914;2023-05-03T06:52:45;101600.89;;;10.35;65.71
31911;BME280;18457;52.432;16.914;2023-05-03T06:55:17;101600.86;;;10.41;65.44
31911;BME280;18457;52.432;16.914;2023-05-03T06:57:48;101597.77;;;10.49;65.09
31911;BME280;18457;52.432;16.914;2023-05-03T07:00:23;101597.57;;;10.50;64.47
31911;BME280;18457;52.432;16.914;2023-05-03T07:02:55;101602.41;;;10.57;63.03
31911;BME280;18457;52.432;16.914;2023-05-03T07:05:27;101602.19;;;10.67;62.15
31911;BME280;18457;52.432;16.914;2023-05-03T07:07:59;101604.86;;;10.73;62.19
31911;BME280;18457;52.432;16.914;2023-05-03T07:10:31;101603.23;;;10.78;61.32
31911;BME280;18457;52.432;16.914;2023-05-03T07:13:02;101607.73;;;10.77;58.91
31911;BME280;18457;52.432;16.914;2023-05-03T07:15:34;101606.80;;;10.82;58.62
31911;BME280;18457;52.432;16.914;2023-05-03T07:18:06;101606.25;;;10.83;57.67
31911;BME280;18457;52.432;16.914;2023-05-03T07:20:37;101608.82;;;10.77;56.79
31911;BME280;18457;52.432;16.914;2023-05-03T07:23:09;101611.48;;;10.83;57.15
31911;BME280;18457;52.432;16.914;2023-05-03T07:25:41;101608.59;;;10.85;56.99
31911;BME280;18457;52.432;16.914;2023-05-03T07:28:12;101604.41;;;10.89;58.53
31911;BME280;18457;52.432;16.914;2023-05-03T07:30:44;101609.27;;;10.93;57.22
31911;BME280;18457;52.432;16.914;2023-05-03T07:33:16;101609.99;;;10.92;56.14
31911;BME280;18457;52.432;16.914;2023-05-03T07:35:49;101609.79;;;10.95;56.47
31911;BME280;18457;52.432;16.914;2023-05-03T07:38:20;101615.20;;;10.97;55.81
31911;BME280;18457;52.432;16.914;2023-05-03T07:40:52;101613.53;;;11.04;55.50
31911;BME280;18457;52.432;16.914;2023-05-03T07:43:24;101618.02;;;11.08;53.71
31911;BME280;18457;52.432;16.914;2023-05-03T07:45:57;101618.30;;;11.21;52.22
31911;BME280;18457;52.432;16.914;2023-05-03T07:48:30;101620.44;;;11.26;48.47
31911;BME280;18457;52.432;16.914;2023-05-03T07:51:05;101620.66;;;11.19;48.03
31911;BME280;18457;52.432;16.914;2023-05-03T07:53:37;101619.88;;;11.28;49.58
31911;BME280;18457;52.432;16.914;2023-05-03T07:56:10;101622.84;;;11.43;51.71
31911;BME280;18457;52.432;16.914;2023-05-03T07:58:41;101623.40;;;11.40;51.76
31911;BME280;18457;52.432;16.914;2023-05-03T08:01:18;101624.95;;;11.50;48.26
31911;BME280;18457;52.432;16.914;2023-05-03T08:03:52;101614.39;;;11.58;48.14
31911;BME280;18457;52.432;16.914;2023-05-03T08:06:24;101610.75;;;11.60;50.65
31911;BME280;18457;52.432;16.914;2023-05-03T08:08:57;101621.45;;;11.58;48.44
31911;BME280;18457;52.432;16.914;2023-05-03T08:11:29;101616.73;;;11.59;48.92
31911;BME280;18457;52.432;16.914;2023-05-03T08:14:01;101619.43;;;11.61;49.66
31911;BME280;18457;52.432;16.914;2023-05-03T08:16:33;101621.88;;;11.50;47.76
31911;BME280;18457;52.432;16.914;2023-05-03T08:19:05;101621.39;;;11.44;47.43
31911;BME280;18457;52.432;16.914;2023-05-03T08:21:37;101621.32;;;11.52;48.12
31911;BME280;18457;52.432;16.914;2023-05-03T08:24:09;101622.17;;;11.60;47.34
31911;BME280;18457;52.432;16.914;2023-05-03T08:26:45;101621.19;;;11.69;47.99
31911;BME280;18457;52.432;16.914;2023-05-03T08:29:17;101621.06;;;11.85;48.61
31911;BME280;18457;52.432;16.914;2023-05-03T08:31:50;101614.18;;;12.02;49.40
31911;BME280;18457;52.432;16.914;2023-05-03T08:34:22;101615.18;;;12.10;49.19
31911;BME280;18457;52.432;16.914;2023-05-03T08:36:54;101618.14;;;12.20;49.08
31911;BME280;18457;52.432;16.914;2023-05-03T08:39:26;101618.05;;;12.12;46.35
31911;BME280;18457;52.432;16.914;2023-05-03T08:42:06;101620.80;;;12.09;46.27
31911;BME280;18457;52.432;16.914;2023-05-03T08:44:45;101621.38;;;12.06;45.29
31911;BME280;18457;52.432;16.914;2023-05-03T08:47:18;101621.80;;;12.17;45.34
31911;BME280;18457;52.432;16.914;2023-05-03T08:49:53;101623.67;;;12.28;45.93
31911;BME280;18457;52.432;16.914;2023-05-03T08:52:26;101621.01;;;12.38;46.10
31911;BME280;18457;52.432;16.914;2023-05-03T08:54:58;101619.02;;;12.52;52.62
31911;BME280;18457;52.432;16.914;2023-05-03T08:57:30;101624.74;;;12.59;46.47
31911;BME280;18457;52.432;16.914;2023-05-03T09:00:03;101629.59;;;12.63;45.43
31911;BME280;18457;52.432;16.914;2023-05-03T09:02:40;101628.96;;;12.56;43.58
31911;BME280;18457;52.432;16.914;2023-05-03T09:05:33;101627.70;;;12.56;43.26
31911;BME280;18457;52.432;16.914;2023-05-03T09:08:10;101626.59;;;12.69;43.78
31911;BME280;18457;52.432;16.914;2023-05-03T09:10:42;101626.73;;;12.74;43.67
31911;BME280;18457;52.432;16.914;2023-05-03T09:13:14;101627.92;;;12.93;43.66
31911;BME280;18457;52.432;16.914;2023-05-03T09:15:53;101622.60;;;12.96;43.14
31911;BME280;18457;52.432;16.914;2023-05-03T09:18:26;101621.96;;;13.04;43.46
31911;BME280;18457;52.432;16.914;2023-05-03T09:21:00;101624.17;;;13.28;44.31
31911;BME280;18457;52.432;16.914;2023-05-03T09:23:32;101620.92;;;13.38;43.29
31911;BME280;18457;52.432;16.914;2023-05-03T09:26:04;101626.67;;;13.41;43.41
31911;BME280;18457;52.432;16.914;2023-05-03T09:28:42;101627.84;;;13.36;43.47
31911;BME280;18457;52.432;16.914;2023-05-03T09:31:14;101620.41;;;13.24;43.45
31911;BME280;18457;52.432;16.914;2023-05-03T09:33:48;101618.30;;;13.19;43.90
31911;BME280;18457;52.432;16.914;2023-05-03T09:36:21;101620.80;;;13.34;43.30
31911;BME280;18457;52.432;16.914;2023-05-03T09:38:54;101614.75;;;13.49;43.47
31911;BME280;18457;52.432;16.914;2023-05-03T09:41:30;101624.48;;;13.30;42.91
31911;BME280;18457;52.432;16.914;2023-05-03T09:44:02;101620.02;;;13.36;43.78
31911;BME280;18457;52.432;16.914;2023-05-03T09:46:34;101616.33;;;13.52;43.08
31911;BME280;18457;52.432;16.914;2023-05-03T09:49:07;101615.58;;;13.74;43.09
31911;BME280;18457;52.432;16.914;2023-05-03T09:51:39;101618.01;;;14.01;42.20
31911;BME280;18457;52.432;16.914;2023-05-03T09:54:11;101616.16;;;14.31;42.29
31911;BME280;18457;52.432;16.914;2023-05-03T09:56:46;101615.05;;;14.59;42.22
31911;BME280;18457;52.432;16.914;2023-05-03T09:59:17;101614.72;;;14.82;41.69
31911;BME280;18457;52.432;16.914;2023-05-03T10:01:51;101613.98;;;14.75;41.64
31911;BME280;18457;52.432;16.914;2023-05-03T10:04:27;101613.52;;;14.54;40.29
31911;BME280;18457;52.432;16.914;2023-05-03T10:07:03;101609.09;;;14.40;39.63
31911;BME280;18457;52.432;16.914;2023-05-03T10:09:43;101613.75;;;14.43;40.86
31911;BME280;18457;52.432;16.914;2023-05-03T10:12:15;101609.23;;;14.42;41.02
31911;BME280;18457;52.432;16.914;2023-05-03T10:14:48;101603.45;;;14.57;40.88
31911;BME280;18457;52.432;16.914;2023-05-03T10:17:26;101603.64;;;14.81;40.34
31911;BME280;18457;52.432;16.914;2023-05-03T10:20:28;101600.16;;;14.99;39.33
31911;BME280;18457;52.432;16.914;2023-05-03T10:23:09;101595.86;;;15.03;39.49
31911;BME280;18457;52.432;16.914;2023-05-03T10:26:14;101603.46;;;15.06;39.83
31911;BME280;18457;52.432;16.914;2023-05-03T10:28:46;101602.45;;;14.94;39.68
31911;BME280;18457;52.432;16.914;2023-05-03T10:31:46;101598.20;;;14.80;40.25
31911;BME280;18457;52.432;16.914;2023-05-03T10:34:22;101598.05;;;14.63;41.06
31911;BME280;18457;52.432;16.914;2023-05-03T10:36:54;101602.14;;;14.41;41.62
31911;BME280;18457;52.432;16.914;2023-05-03T10:39:27;101601.35;;;14.06;41.99
31911;BME280;18457;52.432;16.914;2023-05-03T10:42:02;101600.75;;;14.00;42.13
31911;BME280;18457;52.432;16.914;2023-05-03T10:44:39;101600.55;;;14.00;42.38
31911;BME280;18457;52.432;16.914;2023-05-03T10:47:13;101601.16;;;13.97;42.18
31911;BME280;18457;52.432;16.914;2023-05-03T10:49:46;101599.92;;;14.06;41.97
31911;BME280;18457;52.432;16.914;2023-05-03T10:52:48;101594.58;;;14.28;41.31
31911;BME280;18457;52.432;16.914;2023-05-03T10:55:21;101589.41;;;14.83;39.80
31911;BME280;18457;52.432;16.914;2023-05-03T10:57:58;101593.87;;;15.33;39.50
31911;BME280;18457;52.432;16.914;2023-05-03T11:00:37;101588.90;;;15.65;38.71
31911;BME280;18457;52.432;16.914;2023-05-03T11:03:17;101594.05;;;15.91;38.51
31911;BME280;18457;52.432;16.914;2023-05-03T11:05:55;101592.89;;;15.73;38.33
31911;BME280;18457;52.432;16.914;2023-05-03T11:08:27;101595.71;;;15.33;39.42
31911;BME280;18457;52.432;16.914;2023-05-03T11:11:02;101595.38;;;15.24;40.59
31911;BME280;18457;52.432;16.914;2023-05-03T11:13:37;101595.16;;;15.10;39.84
31911;BME280;18457;52.432;16.914;2023-05-03T11:16:09;101600.39;;;15.20;40.13
31911;BME280;18457;52.432;16.914;2023-05-03T11:18:41;101600.59;;;15.35;39.74
31911;BME280;18457;52.432;16.914;2023-05-03T11:21:13;101596.55;;;15.20;39.28
31911;BME280;18457;52.432;16.914;2023-05-03T11:23:45;101592.44;;;15.40;39.53
31911;BME280;18457;52.432;16.914;2023-05-03T11:26:17;101595.10;;;15.43;39.29
31911;BME280;18457;52.432;16.914;2023-05-03T11:28:55;101599.42;;;15.22;39.12
31911;BME280;18457;52.432;16.914;2023-05-03T11:31:27;101601.36;;;15.32;40.12
31911;BME280;18457;52.432;16.914;2023-05-03T11:33:59;101604.67;;;15.31;40.69
31911;BME280;18457;52.432;16.914;2023-05-03T11:36:31;101600.65;;;15.40;41.07
31911;BME280;18457;52.432;16.914;2023-05-03T11:39:03;101596.55;;;15.44;41.01
31911;BME280;18457;52.432;16.914;2023-05-03T11:41:36;101594.08;;;15.40;40.96
31911;BME280;18457;52.432;16.914;2023-05-03T11:44:08;101597.37;;;15.40;41.18
31911;BME280;18457;52.432;16.914;2023-05-03T11:46:48;101593.23;;;15.37;41.23
31911;BME280;18457;52.432;16.914;2023-05-03T11:49:19;101595.90;;;15.26;41.18
31911;BME280;18457;52.432;16.914;2023-05-03T11:51:52;101599.23;;;15.30;40.82
31911;BME280;18457;52.432;16.914;2023-05-03T11:54:25;101597.89;;;15.18;40.24
31911;BME280;18457;52.432;16.914;2023-05-03T11:56:58;101598.27;;;15.17;40.42
31911;BME280;18457;52.432;16.914;2023-05-03T11:59:39;101598.29;;;15.01;40.43
31911;BME280;18457;52.432;16.914;2023-05-03T12:02:12;101603.02;;;14.85;41.01
31911;BME280;18457;52.432;16.914;2023-05-03T12:04:45;101600.42;;;14.95;41.03
31911;BME280;18457;52.432;16.914;2023-05-03T12:07:18;101598.77;;;15.04;41.37
31911;BME280;18457;52.432;16.914;2023-05-03T12:09:53;101599.73;;;15.09;41.73
31911;BME280;18457;52.432;16.914;2023-05-03T12:12:52;101602.26;;;15.10;41.19
31911;BME280;18457;52.432;16.914;2023-05-03T12:15:31;101603.05;;;15.31;41.18
31911;BME280;18457;52.432;16.914;2023-05-03T12:18:06;101600.27;;;15.32;40.92
31911;BME280;18457;52.432;16.914;2023-05-03T12:20:40;101595.50;;;15.34;41.42
31911;BME280;18457;52.432;16.914;2023-05-03T12:23:32;101595.25;;;15.36;41.36
31911;BME280;18457;52.432;16.914;2023-05-03T12:26:04;101591.19;;;15.47;41.86
31911;BME280;18457;52.432;16.914;2023-05-03T12:28:42;101592.85;;;15.38;41.65
31911;BME280;18457;52.432;16.914;2023-05-03T12:31:14;101588.66;;;15.38;41.58
31911;BME280;18457;52.432;16.914;2023-05-03T12:33:48;101594.24;;;15.41;41.29
31911;BME280;18457;52.432;16.914;2023-05-03T12:36:39;101593.59;;;15.30;41.69
31911;BME280;18457;52.432;16.914;2023-05-03T12:39:13;101593.01;;;15.16;40.83
31911;BME280;18457;52.432;16.914;2023-05-03T12:41:46;101590.92;;;15.05;40.50
31911;BME280;18457;52.432;16.914;2023-05-03T12:44:21;101591.56;;;15.08;40.48
31911;BME280;18457;52.432;16.914;2023-05-03T12:46:53;101587.50;;;15.41;40.64
31911;BME280;18457;52.432;16.914;2023-05-03T12:49:30;101585.55;;;15.75;39.87
31911;BME280;18457;52.432;16.914;2023-05-03T12:52:07;101585.71;;;16.02;38.94
31911;BME280;18457;52.432;16.914;2023-05-03T12:54:42;101582.28;;;16.15;38.12
31911;BME280;18457;52.432;16.914;2023-05-03T12:57:18;101582.46;;;16.40;38.47
31911;BME280;18457;52.432;16.914;2023-05-03T12:59:54;101582.05;;;16.54;37.58
31911;BME280;18457;52.432;16.914;2023-05-03T13:02:32;101580.39;;;16.80;37.55
31911;BME280;18457;52.432;16.914;2023-05-03T13:05:08;101576.77;;;17.07;38.08
31911;BME280;18457;52.432;16.914;2023-05-03T13:08:02;101574.05;;;17.07;37.41
31911;BME280;18457;52.432;16.914;2023-05-03T13:10:37;101573.85;;;17.13;36.09
31911;BME280;18457;52.432;16.914;2023-05-03T13:13:10;101573.52;;;17.06;35.76
31911;BME280;18457;52.432;16.914;2023-05-03T13:15:42;101574.15;;;16.92;35.35
31911;BME280;18457;52.432;16.914;2023-05-03T13:18:16;101572.91;;;16.79;36.25